createdAt,value
2022-10-17T00:01:56.757Z,89.78
2022-10-17T00:04:23.519Z,89.79
2022-10-17T00:06:50.225Z,89.84
2022-10-17T00:09:17.079Z,90.07
2022-10-17T00:11:43.787Z,89.81
2022-10-17T00:14:10.513Z,89.72
2022-10-17T00:16:37.715Z,89.82
2022-10-17T00:19:05.532Z,89.67
2022-10-17T00:21:32.540Z,89.67
2022-10-17T00:23:59.624Z,90.07
2022-10-17T00:26:26.418Z,90.45
2022-10-17T00:28:53.776Z,89.94
2022-10-17T00:31:21.145Z,89.46
2022-10-17T00:33:48.035Z,89.75
2022-10-17T00:36:15.750Z,89.80
2022-10-17T00:38:43.653Z,90.32
2022-10-17T00:41:11.479Z,90.36
2022-10-17T00:43:53.518Z,90.07
2022-10-17T00:46:20.619Z,90.32
2022-10-17T00:48:48.835Z,89.99
2022-10-17T00:51:15.995Z,90.29
2022-10-17T00:53:42.993Z,89.97
2022-10-17T00:56:09.730Z,90.30
2022-10-17T00:58:36.482Z,90.84
2022-10-17T01:01:05.218Z,91.26
2022-10-17T01:03:31.997Z,91.35
2022-10-17T01:05:59.054Z,91.48
2022-10-17T01:08:25.896Z,91.26
2022-10-17T01:10:55.724Z,91.25
2022-10-17T01:13:37.631Z,91.43
2022-10-17T01:16:04.360Z,91.13
2022-10-17T01:18:49.838Z,91.18
2022-10-17T01:21:16.573Z,91.72
2022-10-17T01:23:54.544Z,92.28
2022-10-17T01:26:40.121Z,92.51
2022-10-17T01:29:19.827Z,92.96
2022-10-17T01:32:00.186Z,93.12
2022-10-17T01:34:30.032Z,93.59
2022-10-17T01:37:06.868Z,93.43
2022-10-17T01:39:41.625Z,93.00
2022-10-17T01:42:32.913Z,92.83
2022-10-17T01:45:03.687Z,93.02
2022-10-17T01:47:32.503Z,93.17
2022-10-17T01:50:04.935Z,93.36
2022-10-17T01:52:41.680Z,93.52
2022-10-17T01:55:11.615Z,93.96
2022-10-17T01:57:40.203Z,94.02
2022-10-17T02:00:11.350Z,94.34
2022-10-17T02:02:42.573Z,94.67
2022-10-17T02:05:09.493Z,95.18
2022-10-17T02:07:36.201Z,95.46
2022-10-17T02:10:04.811Z,95.21
2022-10-17T02:12:37.781Z,94.99
2022-10-17T02:15:13.368Z,95.22
2022-10-17T02:17:45.771Z,94.89
2022-10-17T02:20:35.783Z,94.68
2022-10-17T02:25:49.205Z,94.80
2022-10-17T02:28:21.352Z,95.04
2022-10-17T02:31:17.718Z,95.17
2022-10-17T02:33:49.180Z,95.19
2022-10-17T02:36:19.143Z,95.42
2022-10-17T02:38:46.689Z,95.13
2022-10-17T02:41:16.006Z,95.05
2022-10-17T02:43:45.541Z,95.19
2022-10-17T02:46:22.804Z,94.44
2022-10-17T02:48:55.520Z,94.78
2022-10-17T02:51:42.949Z,95.44
2022-10-17T02:54:19.055Z,95.74
2022-10-17T02:56:59.306Z,96.34
2022-10-17T02:59:27.250Z,96.62
2022-10-17T03:01:54.644Z,97.01
2022-10-17T03:04:21.469Z,96.65
2022-10-17T03:06:49.450Z,96.89
2022-10-17T03:09:16.239Z,96.99
2022-10-17T03:11:42.921Z,96.92
2022-10-17T03:14:09.659Z,96.45
2022-10-17T03:16:36.854Z,100.00
2022-10-17T03:19:04.662Z,100.00
2022-10-17T03:21:32.386Z,100.00
2022-10-17T03:23:59.311Z,98.19
2022-10-17T03:26:26.102Z,96.59
2022-10-17T03:28:54.538Z,97.43
2022-10-17T03:31:22.644Z,97.86
2022-10-17T03:33:50.781Z,98.27
2022-10-17T03:36:19.174Z,97.65
2022-10-17T03:38:47.172Z,97.25
2022-10-17T03:41:14.368Z,97.60
2022-10-17T03:43:41.180Z,99.17
2022-10-17T03:46:08.631Z,98.55
2022-10-17T03:48:36.846Z,98.52
2022-10-17T03:51:06.179Z,99.05
2022-10-17T03:53:36.654Z,100.00
2022-10-17T03:56:11.797Z,100.00
2022-10-17T03:58:38.809Z,100.00
2022-10-17T04:01:06.670Z,100.00
2022-10-17T04:03:33.644Z,97.17
2022-10-17T04:06:03.728Z,96.73
2022-10-17T04:08:33.468Z,96.89
2022-10-17T04:11:07.978Z,97.93
2022-10-17T04:13:35.235Z,98.73
2022-10-17T04:16:06.443Z,99.17
2022-10-17T04:18:35.507Z,100.00
2022-10-17T04:21:03.366Z,100.00
2022-10-17T04:23:31.080Z,99.64
2022-10-17T04:26:04.412Z,100.00
2022-10-17T04:28:32.124Z,100.00
2022-10-17T04:31:03.297Z,100.00
2022-10-17T04:33:35.633Z,100.00
2022-10-17T04:36:04.042Z,100.00
2022-10-17T04:38:31.914Z,99.84
2022-10-17T04:40:58.975Z,100.00
2022-10-17T04:43:25.918Z,100.00
2022-10-17T04:45:52.913Z,100.00
2022-10-17T04:48:19.716Z,100.00
2022-10-17T04:50:56.825Z,100.00
2022-10-17T04:53:37.361Z,100.00
2022-10-17T04:56:08.704Z,100.00
2022-10-17T04:58:35.913Z,100.00
2022-10-17T05:01:06.906Z,100.00
2022-10-17T05:03:35.074Z,100.00
2022-10-17T05:06:06.428Z,99.69
2022-10-17T05:08:33.294Z,100.00
2022-10-17T05:13:51.633Z,99.64
2022-10-17T05:16:18.851Z,99.28
2022-10-17T05:18:52.642Z,98.42
2022-10-17T05:21:20.473Z,98.19
2022-10-17T05:23:47.683Z,98.34
2022-10-17T05:26:14.723Z,97.93
2022-10-17T05:28:41.622Z,97.93
2022-10-17T05:31:10.021Z,99.03
2022-10-17T05:33:37.342Z,98.26
2022-10-17T05:36:04.772Z,97.04
2022-10-17T05:38:32.246Z,95.93
2022-10-17T05:41:00.170Z,95.19
2022-10-17T05:43:27.923Z,94.64
2022-10-17T05:45:54.918Z,100.00
2022-10-17T05:48:23.040Z,100.00
2022-10-17T05:50:50.654Z,92.18
2022-10-17T05:53:17.400Z,89.67
2022-10-17T05:55:55.166Z,89.61
2022-10-17T05:58:22.388Z,90.16
2022-10-17T06:01:00.416Z,93.30
2022-10-17T06:03:28.309Z,90.48
2022-10-17T06:05:55.333Z,89.92
2022-10-17T06:08:22.839Z,90.64
2022-10-17T06:10:50.712Z,90.62
2022-10-17T06:13:17.786Z,90.55
2022-10-17T06:17:24.740Z,98.70
2022-10-17T06:19:51.545Z,88.57
2022-10-17T06:22:18.368Z,88.51
2022-10-17T06:24:46.539Z,88.85
2022-10-17T06:27:15.101Z,87.21
2022-10-17T06:29:41.896Z,86.21
2022-10-17T06:32:12.596Z,85.52
2022-10-17T06:34:42.686Z,85.79
2022-10-17T06:37:10.270Z,85.97
2022-10-17T06:39:39.206Z,85.41
2022-10-17T06:42:11.331Z,85.55
2022-10-17T06:44:46.014Z,85.38
2022-10-17T06:47:31.539Z,84.51
2022-10-17T06:50:02.182Z,86.58
2022-10-17T06:52:39.609Z,84.60
2022-10-17T06:55:32.905Z,84.93
2022-10-17T06:58:22.837Z,82.05
2022-10-17T07:01:06.405Z,82.00
2022-10-17T07:03:34.483Z,81.36
2022-10-17T07:06:01.253Z,80.30
2022-10-17T07:08:28.713Z,83.88
2022-10-17T07:10:55.892Z,80.04
2022-10-17T07:13:23.204Z,80.49
2022-10-17T07:15:50.823Z,79.51
2022-10-17T07:18:18.200Z,77.03
2022-10-17T07:20:52.486Z,77.24
2022-10-17T07:23:19.224Z,79.95
2022-10-17T07:25:46.057Z,76.29
2022-10-17T07:28:14.036Z,76.12
2022-10-17T07:30:41.291Z,75.49
2022-10-17T07:33:11.495Z,74.94
2022-10-17T07:35:41.064Z,74.81
2022-10-17T07:38:08.344Z,73.39
2022-10-17T07:40:35.158Z,73.61
2022-10-17T07:43:02.164Z,75.88
2022-10-17T07:45:29.890Z,72.08
2022-10-17T07:47:57.844Z,71.33
2022-10-17T07:50:25.196Z,72.19
2022-10-17T07:52:51.913Z,69.49
2022-10-17T07:55:18.700Z,68.67
2022-10-17T07:57:45.392Z,67.78
2022-10-17T08:00:12.202Z,65.31
2022-10-17T08:02:41.710Z,65.69
2022-10-17T08:05:08.562Z,64.47
2022-10-17T08:07:35.272Z,62.50
2022-10-17T08:10:02.118Z,59.99
2022-10-17T08:12:32.589Z,56.12
2022-10-17T08:14:59.633Z,55.34
2022-10-17T08:17:26.472Z,56.26
2022-10-17T08:19:53.195Z,54.28
2022-10-17T08:22:19.942Z,54.21
2022-10-17T08:24:46.779Z,55.90
2022-10-17T08:27:13.964Z,51.98
2022-10-17T08:29:40.998Z,51.11
2022-10-17T08:32:09.942Z,52.18
2022-10-17T08:34:36.928Z,49.61
2022-10-17T08:37:03.689Z,48.29
2022-10-17T08:39:30.559Z,47.48
2022-10-17T08:42:06.142Z,47.03
2022-10-17T08:45:05.159Z,46.49
2022-10-17T08:47:53.387Z,45.97
2022-10-17T08:50:42.913Z,47.07
2022-10-17T08:53:29.707Z,46.58
2022-10-17T08:55:57.986Z,45.84
2022-10-17T08:58:27.960Z,43.29
2022-10-17T09:01:13.823Z,42.14
2022-10-17T09:03:49.706Z,41.86
2022-10-17T09:06:19.796Z,39.67
2022-10-17T09:08:58.033Z,39.45
2022-10-17T09:11:42.749Z,40.67
2022-10-17T09:14:20.560Z,37.98
2022-10-17T09:17:06.550Z,38.65
2022-10-17T09:19:39.141Z,36.15
2022-10-17T09:22:23.843Z,36.74
2022-10-17T09:25:04.069Z,37.50
2022-10-17T09:27:37.852Z,37.72
2022-10-17T09:30:40.052Z,35.98
2022-10-17T09:33:34.642Z,34.64
2022-10-17T09:36:04.375Z,33.69
2022-10-17T09:38:36.718Z,34.79
2022-10-17T09:41:06.587Z,34.10
2022-10-17T09:43:39.681Z,34.22
2022-10-17T09:46:13.529Z,33.53
2022-10-17T09:48:44.078Z,33.45
2022-10-17T09:51:15.080Z,32.13
2022-10-17T09:53:51.754Z,31.99
2022-10-17T09:56:19.469Z,31.88
2022-10-17T09:58:46.139Z,31.87
2022-10-17T10:01:19.556Z,31.94
2022-10-17T10:04:08.169Z,31.49
2022-10-17T10:06:35.189Z,30.34
2022-10-17T10:09:06.015Z,30.41
2022-10-17T10:12:11.327Z,29.74
2022-10-17T10:14:39.762Z,29.71
2022-10-17T10:17:25.715Z,29.00
2022-10-17T10:19:52.904Z,28.73
2022-10-17T10:22:21.025Z,28.77
2022-10-17T10:25:06.664Z,29.08
2022-10-17T10:30:00.443Z,28.26
2022-10-17T10:32:29.304Z,26.89
2022-10-17T10:34:56.509Z,25.61
2022-10-17T10:37:26.197Z,25.62
2022-10-17T10:40:01.187Z,25.66
2022-10-17T10:42:30.102Z,24.80
2022-10-17T10:45:04.776Z,25.67
2022-10-17T10:47:32.614Z,26.48
2022-10-17T10:50:18.023Z,26.29
2022-10-17T10:53:04.922Z,25.80
2022-10-17T10:55:34.768Z,27.05
2022-10-17T10:58:04.575Z,26.78
2022-10-17T11:00:32.946Z,26.99
2022-10-17T11:03:04.384Z,27.22
2022-10-17T11:05:41.314Z,26.85
2022-10-17T11:08:14.124Z,27.03
2022-10-17T11:10:59.725Z,26.74
2022-10-17T11:13:30.754Z,26.49
2022-10-17T11:16:20.227Z,25.51
2022-10-17T11:19:04.220Z,25.36
2022-10-17T11:21:37.987Z,24.31
2022-10-17T11:24:10.653Z,24.33
2022-10-17T11:26:41.684Z,23.71
2022-10-17T11:29:12.075Z,24.36
2022-10-17T11:31:44.972Z,24.27
2022-10-17T11:34:25.928Z,24.54
2022-10-17T11:36:54.796Z,24.73
2022-10-17T11:39:30.175Z,24.33
2022-10-17T11:42:03.540Z,24.77
2022-10-17T11:44:38.074Z,25.02
2022-10-17T11:47:13.372Z,24.41
2022-10-17T11:49:51.486Z,24.63
2022-10-17T11:52:31.864Z,24.48
2022-10-17T11:55:16.075Z,24.53
2022-10-17T11:57:45.904Z,24.31
2022-10-17T12:00:49.066Z,23.74
2022-10-17T12:03:22.533Z,24.31
2022-10-17T12:05:52.513Z,24.25
2022-10-17T12:08:31.579Z,23.97
2022-10-17T12:11:07.449Z,24.49
2022-10-17T12:13:35.544Z,24.22
2022-10-17T12:16:20.617Z,23.89
2022-10-17T12:19:02.689Z,23.81
2022-10-17T12:21:49.329Z,23.73
2022-10-17T12:24:31.726Z,23.69
2022-10-17T12:26:58.480Z,23.91
2022-10-17T12:29:28.850Z,23.71
2022-10-17T12:32:09.780Z,24.15
2022-10-17T12:34:37.350Z,24.20
2022-10-17T12:37:04.795Z,23.80
2022-10-17T12:39:31.589Z,24.16
2022-10-17T12:41:58.309Z,23.52
2022-10-17T12:44:34.952Z,23.14
2022-10-17T12:47:10.942Z,24.14
2022-10-17T12:49:46.998Z,23.91
2022-10-17T12:52:16.453Z,24.02
2022-10-17T12:55:00.188Z,23.39
2022-10-17T12:57:34.116Z,23.53
2022-10-17T13:00:25.067Z,23.75
2022-10-17T13:02:53.432Z,24.05
2022-10-17T13:05:28.583Z,23.75
2022-10-17T13:07:55.997Z,23.50
2022-10-17T13:10:28.071Z,22.94
2022-10-17T13:13:01.124Z,23.42
2022-10-17T13:15:28.035Z,23.18
2022-10-17T13:17:58.870Z,23.61
2022-10-17T13:20:31.314Z,23.66
2022-10-17T13:22:59.406Z,24.12
2022-10-17T13:25:26.844Z,23.99
2022-10-17T13:28:03.837Z,23.74
2022-10-17T13:30:32.523Z,23.14
2022-10-17T13:32:59.963Z,23.05
2022-10-17T13:35:55.416Z,22.54
2022-10-17T13:38:16.948Z,22.93
2022-10-17T13:40:49.997Z,22.79
2022-10-17T13:43:19.361Z,23.02
2022-10-17T13:45:48.531Z,24.24
2022-10-17T13:51:27.768Z,23.31
2022-10-17T13:53:55.846Z,23.87
2022-10-17T13:56:30.132Z,23.72
2022-10-17T13:59:00.575Z,24.35
2022-10-17T14:01:29.436Z,24.24
2022-10-17T14:04:08.285Z,24.75
2022-10-17T14:06:45.079Z,25.05
2022-10-17T14:09:28.331Z,25.69
2022-10-17T14:12:03.066Z,26.26
2022-10-17T14:14:46.095Z,25.71
2022-10-17T14:17:26.743Z,26.16
2022-10-17T14:20:16.103Z,26.56
2022-10-17T14:23:04.526Z,27.13
2022-10-17T14:25:38.141Z,27.79
2022-10-17T14:28:08.215Z,28.05
2022-10-17T14:30:55.881Z,27.62
2022-10-17T14:33:27.256Z,27.56
2022-10-17T14:35:57.586Z,27.70
2022-10-17T14:38:25.775Z,27.79
2022-10-17T14:41:09.761Z,27.95
2022-10-17T14:43:42.698Z,28.31
2022-10-17T14:46:15.977Z,28.41
2022-10-17T14:48:43.640Z,28.47
2022-10-17T14:51:16.970Z,29.04
2022-10-17T14:54:02.926Z,29.56
2022-10-17T14:56:40.597Z,30.72
2022-10-17T14:59:12.604Z,32.13
2022-10-17T15:01:45.039Z,33.10
2022-10-17T15:04:11.917Z,33.55
2022-10-17T15:06:40.740Z,34.26
2022-10-17T15:09:07.628Z,34.56
2022-10-17T15:11:34.460Z,34.99
2022-10-17T15:14:01.275Z,35.57
2022-10-17T15:16:32.049Z,35.72
2022-10-17T15:18:58.899Z,35.98
2022-10-17T15:21:38.464Z,36.34
2022-10-17T15:24:07.822Z,36.30
2022-10-17T15:26:35.314Z,36.90
2022-10-17T15:29:02.279Z,36.95
2022-10-17T15:31:31.690Z,37.21
2022-10-17T15:33:58.539Z,37.29
2022-10-17T15:36:28.824Z,37.76
2022-10-17T15:38:58.691Z,37.75
2022-10-17T15:41:28.518Z,38.22
2022-10-17T15:43:56.521Z,38.67
2022-10-17T15:46:26.601Z,38.75
2022-10-17T15:48:54.858Z,39.09
2022-10-17T15:51:22.376Z,38.74
2022-10-17T15:53:49.837Z,39.50
2022-10-17T15:56:23.670Z,39.31
2022-10-17T15:58:51.754Z,39.42
2022-10-17T16:01:30.133Z,39.51
2022-10-17T16:03:57.724Z,40.38
2022-10-17T16:06:25.710Z,40.38
2022-10-17T16:08:52.948Z,40.85
2022-10-17T16:11:29.090Z,40.87
2022-10-17T16:13:59.629Z,41.06
2022-10-17T16:16:26.660Z,41.36
2022-10-17T16:18:53.708Z,41.52
2022-10-17T16:21:25.502Z,41.12
2022-10-17T16:23:52.664Z,41.35
2022-10-17T16:26:19.865Z,41.35
2022-10-17T16:28:46.898Z,41.34
2022-10-17T16:31:23.590Z,41.04
2022-10-17T16:33:52.636Z,41.25
2022-10-17T16:36:19.736Z,41.33
2022-10-17T16:38:47.938Z,41.52
2022-10-17T16:41:38.196Z,41.65
2022-10-17T16:44:08.504Z,41.68
2022-10-17T16:46:37.541Z,42.32
2022-10-17T16:49:05.661Z,42.32
2022-10-17T16:51:35.887Z,42.51
2022-10-17T16:54:04.836Z,42.90
2022-10-17T16:56:33.090Z,42.83
2022-10-17T16:59:01.155Z,44.18
2022-10-17T17:01:29.572Z,44.23
2022-10-17T17:03:57.089Z,45.66
2022-10-17T17:06:27.329Z,46.84
2022-10-17T17:08:55.195Z,48.17
2022-10-17T17:11:25.135Z,49.43
2022-10-17T17:13:52.372Z,49.65
2022-10-17T17:16:21.975Z,50.88
2022-10-17T17:18:51.497Z,51.24
2022-10-17T17:21:18.382Z,52.78
2022-10-17T17:23:45.417Z,52.46
2022-10-17T17:26:21.737Z,52.52
2022-10-17T17:28:49.991Z,54.40
2022-10-17T17:31:22.523Z,54.38
2022-10-17T17:33:50.320Z,56.10
2022-10-17T17:36:21.241Z,56.60
2022-10-17T17:38:49.310Z,56.77
2022-10-17T17:41:18.256Z,57.28
2022-10-17T17:43:46.149Z,58.40
2022-10-17T17:46:15.259Z,58.98
2022-10-17T17:48:43.480Z,60.07
2022-10-17T17:51:12.141Z,60.12
2022-10-17T17:53:40.031Z,60.83
2022-10-17T17:56:10.607Z,61.23
2022-10-17T17:58:37.608Z,60.81
2022-10-17T18:01:12.366Z,61.38
2022-10-17T18:03:41.402Z,61.52
2022-10-17T18:06:08.558Z,62.62
2022-10-17T18:08:36.679Z,63.15
2022-10-17T18:11:04.856Z,63.25
2022-10-17T18:13:32.700Z,63.23
2022-10-17T18:16:01.630Z,64.30
2022-10-17T18:18:30.156Z,64.15
2022-10-17T18:21:01.076Z,65.49
2022-10-17T18:23:27.880Z,65.24
2022-10-17T18:26:02.471Z,65.25
2022-10-17T18:28:30.076Z,65.77
2022-10-17T18:31:01.025Z,66.37
2022-10-17T18:33:27.809Z,66.36
2022-10-17T18:35:58.137Z,67.12
2022-10-17T18:38:26.573Z,67.53
2022-10-17T18:41:02.865Z,68.32
2022-10-17T18:43:29.709Z,68.83
2022-10-17T18:46:01.199Z,69.20
2022-10-17T18:48:28.570Z,69.20
2022-10-17T18:50:55.402Z,69.50
2022-10-17T18:53:22.801Z,68.95
2022-10-17T18:55:51.315Z,68.84
2022-10-17T18:58:21.792Z,69.50
2022-10-17T19:00:50.373Z,73.42
2022-10-17T19:03:18.181Z,70.36
2022-10-17T19:05:46.393Z,70.57
2022-10-17T19:08:15.373Z,70.94
2022-10-17T19:10:43.230Z,72.08
2022-10-17T19:13:11.765Z,72.70
2022-10-17T19:15:39.554Z,73.14
2022-10-17T19:18:06.724Z,73.26
2022-10-17T19:20:33.633Z,73.54
2022-10-17T19:23:00.446Z,74.35
2022-10-17T19:25:30.479Z,75.08
2022-10-17T19:27:58.062Z,74.73
2022-10-17T19:30:25.150Z,75.13
2022-10-17T19:32:52.388Z,78.88
2022-10-17T19:35:19.219Z,76.52
2022-10-17T19:37:46.143Z,76.80
2022-10-17T19:40:13.844Z,77.13
2022-10-17T19:42:40.875Z,77.31
2022-10-17T19:45:09.038Z,77.03
2022-10-17T19:47:36.250Z,77.43
2022-10-17T19:52:31.210Z,78.39
2022-10-17T19:54:58.249Z,78.91
2022-10-17T19:57:25.970Z,79.00
2022-10-17T19:59:55.866Z,79.11
2022-10-17T20:02:23.564Z,79.29
2022-10-17T20:05:00.131Z,79.00
2022-10-17T20:07:37.190Z,79.78
2022-10-17T20:10:04.258Z,78.96
2022-10-17T20:12:31.374Z,79.75
2022-10-17T20:14:58.411Z,78.94
2022-10-17T20:17:25.726Z,78.42
2022-10-17T20:19:52.552Z,78.38
2022-10-17T20:22:19.389Z,78.41
2022-10-17T20:24:46.313Z,78.02
2022-10-17T20:27:13.177Z,78.26
2022-10-17T20:29:40.595Z,78.29
2022-10-17T20:32:07.452Z,78.45
2022-10-17T20:34:35.756Z,78.37
2022-10-17T20:37:02.749Z,78.63
2022-10-17T20:39:30.339Z,78.50
2022-10-17T20:41:57.149Z,77.85
2022-10-17T20:44:23.987Z,78.19
2022-10-17T20:47:01.209Z,78.71
2022-10-17T20:49:30.366Z,78.67
2022-10-17T20:51:57.456Z,78.71
2022-10-17T20:54:24.788Z,78.90
2022-10-17T20:56:52.216Z,79.57
2022-10-17T20:59:22.011Z,80.57
2022-10-17T21:01:48.952Z,80.83
2022-10-17T21:04:44.794Z,80.86
2022-10-17T21:07:04.207Z,80.59
2022-10-17T21:09:31.245Z,80.30
2022-10-17T21:11:58.491Z,80.37
2022-10-17T21:14:25.660Z,80.11
2022-10-17T21:16:52.913Z,80.75
2022-10-17T21:19:28.666Z,80.82
2022-10-17T21:21:58.443Z,80.99
2022-10-17T21:24:25.654Z,81.51
2022-10-17T21:26:55.781Z,81.83
2022-10-17T21:29:23.548Z,81.42
2022-10-17T21:31:50.639Z,81.96
2022-10-17T21:34:21.323Z,82.26
2022-10-17T21:36:48.491Z,81.91
2022-10-17T21:39:16.002Z,80.75
2022-10-17T21:41:43.916Z,80.81
2022-10-17T21:44:14.017Z,80.71
2022-10-17T21:46:41.500Z,80.37
2022-10-17T21:49:09.624Z,80.88
2022-10-17T21:51:36.432Z,81.14
2022-10-17T21:54:05.662Z,81.55
2022-10-17T21:56:34.841Z,81.60
2022-10-17T21:59:02.121Z,81.90
2022-10-17T22:01:31.845Z,81.91
2022-10-17T22:04:02.049Z,82.27
2022-10-17T22:06:47.098Z,82.45
2022-10-17T22:09:18.336Z,82.49
2022-10-17T22:11:48.313Z,82.55
2022-10-17T22:14:18.064Z,82.42
2022-10-17T22:16:52.248Z,82.03
2022-10-17T22:19:22.073Z,81.79
2022-10-17T22:21:49.743Z,81.81
2022-10-17T22:24:18.270Z,82.07
2022-10-17T22:26:45.788Z,82.15
2022-10-17T22:29:12.931Z,82.49
2022-10-17T22:31:39.902Z,83.07
2022-10-17T22:34:07.920Z,83.15
2022-10-17T22:36:35.254Z,82.78
2022-10-17T22:39:04.529Z,82.92
2022-10-17T22:41:31.356Z,82.95
2022-10-17T22:43:58.198Z,82.94
2022-10-17T22:46:25.832Z,82.92
2022-10-17T22:48:53.697Z,82.52
2022-10-17T22:51:21.339Z,83.38
2022-10-17T22:53:48.201Z,83.18
2022-10-17T22:56:18.623Z,83.23
2022-10-17T22:58:46.116Z,83.33
2022-10-17T23:01:21.943Z,82.30
2022-10-17T23:03:49.471Z,82.86
2022-10-17T23:06:16.440Z,83.11
2022-10-17T23:08:43.665Z,83.12
2022-10-17T23:11:11.236Z,83.76
2022-10-17T23:13:39.838Z,83.68
2022-10-17T23:16:07.282Z,82.95
2022-10-17T23:18:34.076Z,82.58
2022-10-17T23:21:00.838Z,82.19
2022-10-17T23:23:27.616Z,82.94
2022-10-17T23:25:54.493Z,83.95
2022-10-17T23:28:21.350Z,84.63
2022-10-17T23:30:48.194Z,84.32
2022-10-17T23:33:15.294Z,84.59
2022-10-17T23:35:42.624Z,84.71
2022-10-17T23:38:09.928Z,85.37
2022-10-17T23:40:36.949Z,85.77
2022-10-17T23:43:04.940Z,85.92
2022-10-17T23:45:34.801Z,85.85
2022-10-17T23:48:05.020Z,85.40
2022-10-17T23:50:31.808Z,85.59
2022-10-17T23:52:58.671Z,86.13
2022-10-17T23:55:25.575Z,85.97
2022-10-17T23:57:53.640Z,85.73
